• Join FlightAware (Why Join?)
  • Login
  • US Flag 
04:10AM EDT


 

Airport Tracker/Info


-or-


 

Live Flight TrackerFlight Track Log ✈ N146RF ✈ 25-Feb-2014 ✈ KPIE - KLNA

Flight Track Log - Related Links

Times and Time Zones

All times are in EST time to prevent confusion due to time zone crossing. See the N146RF flight status page for this flight to view local times or setup timezone preferences in your user account.

Time Position Orientation Groundspeed Altitude Reporting Facility
EST Latitude Longitude Course Direction KTS MPH feet Rate Location/Type
09:28PM 27.9167 -82.6833 319° Northwest 88 101 400  Level Tampa TRACON
09:28PM 27.9333 -82.7000 319° Northwest 95 109 700 960 Climbing Tampa TRACON
09:29PM 27.9500 -82.7000 360° North 106 122 1,700 900 Climbing Tampa TRACON
09:30PM 27.9500 -82.7167 270° West 128 147 2,500 780 Climbing Tampa TRACON
09:31PM 27.9167 -82.7167 180° South 134 154 3,400 720 Climbing Tampa TRACON
09:32PM 27.8833 -82.7000 156° South 148 170 4,100 720 Climbing Tampa TRACON
09:33PM 27.8333 -82.6833 164° South 148 170 4,900 840 Climbing Tampa TRACON
09:34PM 27.8167 -82.6333 111° Southeast 161 185 5,800 900 Climbing Tampa TRACON
09:35PM 27.8000 -82.6000 119° Southeast 152 175 6,700 840 Climbing Tampa TRACON
09:36PM 27.7833 -82.5500 111° Southeast 155 178 7,600 840 Climbing Tampa TRACON
09:37PM 27.7667 -82.5000 111° Southeast 154 177 8,500 780 Climbing Tampa TRACON
09:38PM 27.7500 -82.4667 119° Southeast 158 182 9,200 720 Climbing Tampa TRACON
09:40PM 27.7092 -82.3564 113° Southeast 187 215 10,800 540 Climbing Miami Center
09:41PM 27.6864 -82.3039 116° Southeast 187 215 11,000 60 Climbing Miami Center
09:42PM 27.6614 -82.2417 114° Southeast 203 234 11,000  Level Miami Center
09:43PM 27.6367 -82.1797 114° Southeast 209 241 11,000  Level Miami Center
09:44PM 27.6136 -82.1269 116° Southeast 209 241 11,000  Level Miami Center
09:45PM 27.5883 -82.0719 117° Southeast 204 235 11,000  Level Miami Center
09:46PM 27.5614 -82.0122 117° Southeast 199 229 11,000  Level Miami Center
09:47PM 27.5339 -81.9642 123° Southeast 205 236 11,000  Level Miami Center
09:48PM 27.5022 -81.9114 124° Southeast 205 236 11,000  Level Miami Center
09:49PM 27.4708 -81.8583 124° Southeast 200 230 11,000  Level Miami Center
09:50PM 27.4414 -81.8058 122° Southeast 200 230 11,000  Level Miami Center
09:51PM 27.4117 -81.7531 122° Southeast 200 230 11,000  Level Miami Center
09:52PM 27.3800 -81.7025 125° Southeast 200 230 11,000  Level Miami Center
09:53PM 27.3506 -81.6500 122° Southeast 200 230 11,000  Level Miami Center
09:54PM 27.3211 -81.5950 121° Southeast 200 230 11,000  Level Miami Center
09:55PM 27.2892 -81.5447 126° Southeast 200 230 11,000  Level Miami Center
09:56PM 27.2575 -81.4919 124° Southeast 200 230 11,000  Level Miami Center
09:57PM 27.2239 -81.4392 126° Southeast 200 230 11,000  Level Miami Center
09:58PM 27.1942 -81.3844 121° Southeast 200 230 11,000 -120 Level Miami Center
09:59PM 27.1606 -81.3247 122° Southeast 200 230 10,800 -360 Descending Miami Center
10:00PM 27.1289 -81.2675 122° Southeast 205 236 10,300 -480 Descending Miami Center
10:01PM 27.0950 -81.2125 125° Southeast 210 242 9,900 -480 Descending Miami Center
10:02PM 27.0633 -81.1600 124° Southeast 216 249 9,400 -540 Descending Miami Center
10:03PM 27.0253 -81.1028 127° Southeast 216 249 8,900 -540 Descending Miami Center
10:04PM 26.9956 -81.0458 120° Southeast 216 249 8,400 -540 Descending Miami Center
10:05PM 26.9617 -80.9908 125° Southeast 216 249 7,900 -540 Descending Miami Center
10:06PM 26.9319 -80.9386 123° Southeast 216 249 7,400 -480 Descending Miami Center
10:07PM 26.9039 -80.8911 124° Southeast 210 242 7,000 -240 Descending Miami Center
10:08PM 26.8700 -80.8364 125° Southeast 205 236 7,000  Level Miami Center
10:09PM 26.8419 -80.7889 123° Southeast 194 223 7,000  Level Miami Center
10:10PM 26.8119 -80.7414 125° Southeast 189 217 7,000 -300 Level Miami Center
10:11PM 26.7861 -80.6939 121° Southeast 189 217 6,500 -540 Descending Miami Center
10:12PM 26.7539 -80.6417 125° Southeast 201 231 6,000 -540 Descending Miami Center
10:13PM 26.7219 -80.5847 122° Southeast 201 231 5,500 -480 Descending Miami Center
10:14PM 26.6942 -80.5375 123° Southeast 201 231 5,100 -420 Descending Miami Center
10:15PM 26.6661 -80.4831 120° Southeast 193 222 4,700 -420 Descending Miami Center
10:16PM 26.6400 -80.4381 123° Southeast 188 216 4,300 -420 Descending Miami Center
10:18PM 26.6446 -80.3829 85° East  Level FlightAware Approximate
10:25PM 26.5833 -80.0833 114° Southeast  Level FlightAware Approximate
10:26PM 26.5931 -80.0851 114° Southeast  Level Estimated
10:27PM 26.5931 -80.0851 114° Southeast  Level Estimated
10:28PM 26.5931 -80.0851 114° Southeast  Level Estimated
10:29PM 26.5931 -80.0851 114° Southeast  Level Estimated
10:30PM 26.5931 -80.0851 114° Southeast  Level Estimated
10:31PM 26.5931 -80.0851 114° Southeast  Level Estimated
10:32PM 26.5931 -80.0851 114° Southeast  Level Estimated